sensor_id;sensor_type;location;lat;lon;timestamp;pressure;altitude;pressure_sealevel;temperature;humidity
8051;BME280;4068;42.158;24.732;2022-07-04T00:02:18;99861.69;;;21.05;69.99
8051;BME280;4068;42.158;24.732;2022-07-04T00:04:43;99859.81;;;21.06;70.40
8051;BME280;4068;42.158;24.732;2022-07-04T00:07:08;99859.00;;;21.05;70.07
8051;BME280;4068;42.158;24.732;2022-07-04T00:09:34;99853.31;;;21.00;70.18
8051;BME280;4068;42.158;24.732;2022-07-04T00:11:59;99847.44;;;20.96;70.51
8051;BME280;4068;42.158;24.732;2022-07-04T00:14:25;99848.84;;;20.92;70.37
8051;BME280;4068;42.158;24.732;2022-07-04T00:16:50;99841.97;;;20.90;70.49
8051;BME280;4068;42.158;24.732;2022-07-04T00:19:15;99842.34;;;20.86;70.88
8051;BME280;4068;42.158;24.732;2022-07-04T00:21:41;99837.94;;;20.85;71.29
8051;BME280;4068;42.158;24.732;2022-07-04T00:24:06;99827.44;;;20.91;70.35
8051;BME280;4068;42.158;24.732;2022-07-04T00:26:32;99828.47;;;20.90;70.44
8051;BME280;4068;42.158;24.732;2022-07-04T00:28:57;99828.28;;;20.91;70.56
8051;BME280;4068;42.158;24.732;2022-07-04T00:31:23;99825.97;;;20.88;70.37
8051;BME280;4068;42.158;24.732;2022-07-04T00:33:48;99825.78;;;20.90;70.10
8051;BME280;4068;42.158;24.732;2022-07-04T00:36:14;99828.28;;;20.91;69.97
8051;BME280;4068;42.158;24.732;2022-07-04T00:38:39;99825.97;;;20.88;69.67
8051;BME280;4068;42.158;24.732;2022-07-04T00:41:04;99829.88;;;20.85;69.91
8051;BME280;4068;42.158;24.732;2022-07-04T00:43:30;99820.66;;;20.80;69.89
8051;BME280;4068;42.158;24.732;2022-07-04T00:45:56;99818.06;;;20.86;69.34
8051;BME280;4068;42.158;24.732;2022-07-04T00:48:21;99818.06;;;20.86;68.83
8051;BME280;4068;42.158;24.732;2022-07-04T00:50:48;99795.84;;;20.69;69.12
8051;BME280;4068;42.158;24.732;2022-07-04T00:53:14;99805.97;;;20.82;69.41
8051;BME280;4068;42.158;24.732;2022-07-04T00:55:40;99820.09;;;20.84;69.35
8051;BME280;4068;42.158;24.732;2022-07-04T00:58:06;99802.63;;;20.80;70.58
8051;BME280;4068;42.158;24.732;2022-07-04T01:00:32;99810.25;;;20.92;70.99
8051;BME280;4068;42.158;24.732;2022-07-04T01:02:58;99806.25;;;20.88;71.04
8051;BME280;4068;42.158;24.732;2022-07-04T01:05:23;99803.28;;;20.82;71.78
8051;BME280;4068;42.158;24.732;2022-07-04T01:07:50;99798.28;;;20.79;71.90
8051;BME280;4068;42.158;24.732;2022-07-04T01:10:16;99796.09;;;20.75;71.55
8051;BME280;4068;42.158;24.732;2022-07-04T01:12:41;99792.50;;;20.82;73.84
8051;BME280;4068;42.158;24.732;2022-07-04T01:15:07;99802.16;;;20.77;74.07
8051;BME280;4068;42.158;24.732;2022-07-04T01:17:34;99801.22;;;20.69;73.90
8051;BME280;4068;42.158;24.732;2022-07-04T01:19:59;99806.84;;;20.60;74.42
8051;BME280;4068;42.158;24.732;2022-07-04T01:22:25;99798.72;;;20.68;75.11
8051;BME280;4068;42.158;24.732;2022-07-04T01:24:50;99794.88;;;20.62;75.47
8051;BME280;4068;42.158;24.732;2022-07-04T01:27:16;99776.97;;;20.46;76.44
8051;BME280;4068;42.158;24.732;2022-07-04T01:29:42;99783.59;;;20.44;76.93
8051;BME280;4068;42.158;24.732;2022-07-04T01:32:08;99786.91;;;20.46;76.87
8051;BME280;4068;42.158;24.732;2022-07-04T01:34:35;99770.47;;;20.41;77.33
8051;BME280;4068;42.158;24.732;2022-07-04T01:37:01;99772.50;;;20.39;77.64
8051;BME280;4068;42.158;24.732;2022-07-04T01:39:27;99777.41;;;20.35;78.51
8051;BME280;4068;42.158;24.732;2022-07-04T01:41:53;99775.75;;;20.34;78.99
8051;BME280;4068;42.158;24.732;2022-07-04T01:44:19;99768.38;;;20.28;78.68
8051;BME280;4068;42.158;24.732;2022-07-04T01:46:44;99776.94;;;20.31;78.92
8051;BME280;4068;42.158;24.732;2022-07-04T01:49:10;99778.16;;;20.29;78.48
8051;BME280;4068;42.158;24.732;2022-07-04T01:51:35;99779.53;;;20.25;79.08
8051;BME280;4068;42.158;24.732;2022-07-04T01:54:00;99775.19;;;20.24;79.77
8051;BME280;4068;42.158;24.732;2022-07-04T01:56:26;99777.94;;;20.15;79.07
8051;BME280;4068;42.158;24.732;2022-07-04T01:58:52;99784.31;;;20.14;79.25
8051;BME280;4068;42.158;24.732;2022-07-04T02:01:17;99795.44;;;20.11;79.39
8051;BME280;4068;42.158;24.732;2022-07-04T02:03:54;99785.41;;;20.05;80.29
8051;BME280;4068;42.158;24.732;2022-07-04T02:06:20;99781.03;;;20.04;81.37
8051;BME280;4068;42.158;24.732;2022-07-04T02:08:45;99787.78;;;20.00;81.49
8051;BME280;4068;42.158;24.732;2022-07-04T02:11:30;99786.28;;;19.97;82.24
8051;BME280;4068;42.158;24.732;2022-07-04T02:14:15;99775.75;;;19.88;82.61
8051;BME280;4068;42.158;24.732;2022-07-04T02:16:41;99794.00;;;20.00;81.97
8051;BME280;4068;42.158;24.732;2022-07-04T02:19:06;99792.88;;;19.95;82.65
8051;BME280;4068;42.158;24.732;2022-07-04T02:21:31;99797.72;;;19.99;82.48
8051;BME280;4068;42.158;24.732;2022-07-04T02:23:57;99788.34;;;19.95;83.25
8051;BME280;4068;42.158;24.732;2022-07-04T02:26:22;99796.94;;;19.91;83.72
8051;BME280;4068;42.158;24.732;2022-07-04T02:28:48;99793.63;;;19.80;84.37
8051;BME280;4068;42.158;24.732;2022-07-04T02:31:13;99798.38;;;19.70;84.64
8051;BME280;4068;42.158;24.732;2022-07-04T02:33:38;99800.94;;;19.63;83.60
8051;BME280;4068;42.158;24.732;2022-07-04T02:36:04;99807.16;;;19.64;83.73
8051;BME280;4068;42.158;24.732;2022-07-04T02:38:30;99807.50;;;19.61;82.70
8051;BME280;4068;42.158;24.732;2022-07-04T02:40:55;99810.53;;;19.58;83.10
8051;BME280;4068;42.158;24.732;2022-07-04T02:43:20;99810.56;;;19.49;84.35
8051;BME280;4068;42.158;24.732;2022-07-04T02:45:46;99810.56;;;19.49;85.09
8051;BME280;4068;42.158;24.732;2022-07-04T02:48:11;99809.75;;;19.49;84.38
8051;BME280;4068;42.158;24.732;2022-07-04T02:50:37;99817.44;;;19.52;83.42
8051;BME280;4068;42.158;24.732;2022-07-04T02:53:02;99789.28;;;19.40;82.62
8051;BME280;4068;42.158;24.732;2022-07-04T02:55:28;99817.94;;;19.56;83.10
8051;BME280;4068;42.158;24.732;2022-07-04T02:57:53;99819.28;;;19.60;83.87
8051;BME280;4068;42.158;24.732;2022-07-04T03:00:18;99808.06;;;19.48;84.94
8051;BME280;4068;42.158;24.732;2022-07-04T03:02:44;99829.00;;;19.61;85.01
8051;BME280;4068;42.158;24.732;2022-07-04T03:05:09;99819.09;;;19.61;86.06
8051;BME280;4068;42.158;24.732;2022-07-04T03:07:35;99829.16;;;19.67;85.39
8051;BME280;4068;42.158;24.732;2022-07-04T03:10:00;99821.75;;;19.70;84.96
8051;BME280;4068;42.158;24.732;2022-07-04T03:12:26;99809.97;;;19.71;84.00
8051;BME280;4068;42.158;24.732;2022-07-04T03:14:51;99841.25;;;20.03;82.61
8051;BME280;4068;42.158;24.732;2022-07-04T03:17:18;99839.59;;;20.48;81.63
8051;BME280;4068;42.158;24.732;2022-07-04T03:19:44;99833.13;;;20.81;80.73
8051;BME280;4068;42.158;24.732;2022-07-04T03:22:09;99839.03;;;20.76;80.95
8051;BME280;4068;42.158;24.732;2022-07-04T03:24:35;99838.09;;;20.69;81.42
8051;BME280;4068;42.158;24.732;2022-07-04T03:27:00;99839.06;;;21.06;80.42
8051;BME280;4068;42.158;24.732;2022-07-04T03:29:26;99828.38;;;21.72;78.01
8051;BME280;4068;42.158;24.732;2022-07-04T03:31:51;99829.53;;;22.65;73.64
8051;BME280;4068;42.158;24.732;2022-07-04T03:34:17;99805.06;;;23.36;69.75
8051;BME280;4068;42.158;24.732;2022-07-04T03:36:42;99825.97;;;24.31;66.43
8051;BME280;4068;42.158;24.732;2022-07-04T03:39:08;99830.19;;;24.87;63.86
8051;BME280;4068;42.158;24.732;2022-07-04T03:41:33;99828.44;;;25.40;63.23
8051;BME280;4068;42.158;24.732;2022-07-04T03:43:59;99829.38;;;25.65;61.77
8051;BME280;4068;42.158;24.732;2022-07-04T03:46:24;99826.22;;;25.75;61.29
8051;BME280;4068;42.158;24.732;2022-07-04T03:48:50;99810.84;;;25.56;61.76
8051;BME280;4068;42.158;24.732;2022-07-04T03:51:15;99819.22;;;25.41;62.12
8051;BME280;4068;42.158;24.732;2022-07-04T03:53:41;99830.53;;;25.24;62.98
8051;BME280;4068;42.158;24.732;2022-07-04T03:56:07;99819.31;;;25.01;64.35
8051;BME280;4068;42.158;24.732;2022-07-04T03:58:34;99830.19;;;24.47;65.99
8051;BME280;4068;42.158;24.732;2022-07-04T04:00:59;99820.91;;;24.01;67.45
8051;BME280;4068;42.158;24.732;2022-07-04T04:03:25;99823.41;;;23.89;67.26
8051;BME280;4068;42.158;24.732;2022-07-04T04:06:09;99817.44;;;23.59;68.41
8051;BME280;4068;42.158;24.732;2022-07-04T04:08:34;99825.50;;;23.46;69.34
8051;BME280;4068;42.158;24.732;2022-07-04T04:11:00;99819.28;;;23.52;69.37
8051;BME280;4068;42.158;24.732;2022-07-04T04:13:25;99822.56;;;23.47;70.63
8051;BME280;4068;42.158;24.732;2022-07-04T04:15:51;99822.25;;;23.22;70.85
8051;BME280;4068;42.158;24.732;2022-07-04T04:18:16;99823.34;;;23.34;71.87
8051;BME280;4068;42.158;24.732;2022-07-04T04:20:42;99814.03;;;23.43;70.27
8051;BME280;4068;42.158;24.732;2022-07-04T04:23:07;99825.69;;;23.44;71.02
8051;BME280;4068;42.158;24.732;2022-07-04T04:25:32;99816.94;;;23.42;71.07
8051;BME280;4068;42.158;24.732;2022-07-04T04:27:58;99813.44;;;23.48;71.65
8051;BME280;4068;42.158;24.732;2022-07-04T04:30:23;99826.97;;;23.48;70.71
8051;BME280;4068;42.158;24.732;2022-07-04T04:32:49;99804.03;;;23.44;70.73
8051;BME280;4068;42.158;24.732;2022-07-04T04:35:15;99822.41;;;23.55;71.15
8051;BME280;4068;42.158;24.732;2022-07-04T04:37:40;99812.03;;;23.59;70.66
8051;BME280;4068;42.158;24.732;2022-07-04T04:40:06;99819.97;;;23.67;69.53
8051;BME280;4068;42.158;24.732;2022-07-04T04:42:32;99830.81;;;23.74;69.60
8051;BME280;4068;42.158;24.732;2022-07-04T04:44:58;99843.16;;;23.83;69.72
8051;BME280;4068;42.158;24.732;2022-07-04T04:47:23;99833.72;;;23.72;69.62
8051;BME280;4068;42.158;24.732;2022-07-04T04:49:49;99818.09;;;23.68;69.70
8051;BME280;4068;42.158;24.732;2022-07-04T04:52:14;99828.34;;;23.79;69.11
8051;BME280;4068;42.158;24.732;2022-07-04T04:54:40;99814.56;;;23.67;68.01
8051;BME280;4068;42.158;24.732;2022-07-04T04:57:06;99845.00;;;23.83;68.66
8051;BME280;4068;42.158;24.732;2022-07-04T04:59:32;99841.75;;;23.87;69.08
8051;BME280;4068;42.158;24.732;2022-07-04T05:01:58;99840.69;;;23.88;68.68
8051;BME280;4068;42.158;24.732;2022-07-04T05:04:24;99818.75;;;23.76;69.96
8051;BME280;4068;42.158;24.732;2022-07-04T05:06:49;99829.47;;;23.91;70.12
8051;BME280;4068;42.158;24.732;2022-07-04T05:09:15;99840.09;;;24.00;69.11
8051;BME280;4068;42.158;24.732;2022-07-04T05:11:41;99837.81;;;24.03;68.55
8051;BME280;4068;42.158;24.732;2022-07-04T05:14:06;99833.66;;;24.14;68.16
8051;BME280;4068;42.158;24.732;2022-07-04T05:16:32;99830.34;;;24.12;69.16
8051;BME280;4068;42.158;24.732;2022-07-04T05:18:57;99836.59;;;24.19;68.45
8051;BME280;4068;42.158;24.732;2022-07-04T05:21:23;99837.03;;;24.23;68.24
8051;BME280;4068;42.158;24.732;2022-07-04T05:23:51;99805.75;;;24.20;67.53
8051;BME280;4068;42.158;24.732;2022-07-04T05:26:17;99808.91;;;24.37;65.86
8051;BME280;4068;42.158;24.732;2022-07-04T05:28:42;99824.78;;;24.60;65.93
8051;BME280;4068;42.158;24.732;2022-07-04T05:31:07;99823.75;;;24.61;65.32
8051;BME280;4068;42.158;24.732;2022-07-04T05:33:33;99823.13;;;24.73;65.29
8051;BME280;4068;42.158;24.732;2022-07-04T05:35:58;99825.38;;;24.83;64.43
8051;BME280;4068;42.158;24.732;2022-07-04T05:38:24;99792.88;;;24.76;63.79
8051;BME280;4068;42.158;24.732;2022-07-04T05:40:49;99829.13;;;24.95;63.88
8051;BME280;4068;42.158;24.732;2022-07-04T05:43:15;99824.75;;;25.07;63.92
8051;BME280;4068;42.158;24.732;2022-07-04T05:45:40;99830.13;;;25.21;62.09
8051;BME280;4068;42.158;24.732;2022-07-04T05:48:06;99827.00;;;25.17;62.47
8051;BME280;4068;42.158;24.732;2022-07-04T05:50:31;99829.47;;;25.25;60.94
8051;BME280;4068;42.158;24.732;2022-07-04T05:52:56;99832.63;;;25.36;59.19
8051;BME280;4068;42.158;24.732;2022-07-04T05:55:22;99810.28;;;25.33;59.42
8051;BME280;4068;42.158;24.732;2022-07-04T05:57:47;99827.97;;;25.49;59.04
8051;BME280;4068;42.158;24.732;2022-07-04T06:00:13;99828.38;;;25.53;58.63
8051;BME280;4068;42.158;24.732;2022-07-04T06:02:39;99823.53;;;25.62;59.05
8051;BME280;4068;42.158;24.732;2022-07-04T06:05:07;99822.03;;;25.73;56.38
8051;BME280;4068;42.158;24.732;2022-07-04T06:07:32;99817.34;;;25.87;54.84
8051;BME280;4068;42.158;24.732;2022-07-04T06:09:58;99825.69;;;25.92;55.04
8051;BME280;4068;42.158;24.732;2022-07-04T06:12:23;99818.56;;;25.97;54.84
8051;BME280;4068;42.158;24.732;2022-07-04T06:14:49;99818.78;;;26.03;53.74
8051;BME280;4068;42.158;24.732;2022-07-04T06:17:14;99822.28;;;26.10;54.85
8051;BME280;4068;42.158;24.732;2022-07-04T06:19:39;99820.97;;;26.19;54.76
8051;BME280;4068;42.158;24.732;2022-07-04T06:22:05;99825.66;;;26.37;53.43
8051;BME280;4068;42.158;24.732;2022-07-04T06:24:30;99822.47;;;26.40;53.34
8051;BME280;4068;42.158;24.732;2022-07-04T06:26:56;99818.22;;;26.51;52.06
8051;BME280;4068;42.158;24.732;2022-07-04T06:29:21;99814.00;;;26.55;52.02
8051;BME280;4068;42.158;24.732;2022-07-04T06:31:47;99811.22;;;26.62;51.43
8051;BME280;4068;42.158;24.732;2022-07-04T06:34:13;99814.97;;;26.61;52.19
8051;BME280;4068;42.158;24.732;2022-07-04T06:36:57;99821.28;;;26.61;51.87
8051;BME280;4068;42.158;24.732;2022-07-04T06:39:22;99788.97;;;26.46;51.99
8051;BME280;4068;42.158;24.732;2022-07-04T06:41:47;99820.66;;;26.59;52.83
8051;BME280;4068;42.158;24.732;2022-07-04T06:44:13;99803.03;;;26.68;52.95
8051;BME280;4068;42.158;24.732;2022-07-04T06:46:38;99806.69;;;26.81;51.27
8051;BME280;4068;42.158;24.732;2022-07-04T06:49:04;99804.84;;;26.75;52.29
8051;BME280;4068;42.158;24.732;2022-07-04T06:51:29;99799.31;;;26.88;51.07
8051;BME280;4068;42.158;24.732;2022-07-04T06:53:55;99791.91;;;26.95;51.73
8051;BME280;4068;42.158;24.732;2022-07-04T06:56:20;99786.00;;;26.98;50.79
8051;BME280;4068;42.158;24.732;2022-07-04T06:58:46;99785.16;;;26.98;50.74
8051;BME280;4068;42.158;24.732;2022-07-04T07:01:11;99785.94;;;27.05;51.17
8051;BME280;4068;42.158;24.732;2022-07-04T07:03:37;99780.41;;;27.12;50.78
8051;BME280;4068;42.158;24.732;2022-07-04T07:06:02;99777.38;;;27.20;50.51
8051;BME280;4068;42.158;24.732;2022-07-04T07:08:29;99770.66;;;27.04;51.27
8051;BME280;4068;42.158;24.732;2022-07-04T07:10:58;99767.09;;;27.22;50.69
8051;BME280;4068;42.158;24.732;2022-07-04T07:13:45;99750.31;;;27.25;49.44
8051;BME280;4068;42.158;24.732;2022-07-04T07:16:11;99759.31;;;27.26;50.02
8051;BME280;4068;42.158;24.732;2022-07-04T07:18:37;99762.88;;;27.45;48.50
8051;BME280;4068;42.158;24.732;2022-07-04T07:21:02;99769.59;;;27.61;48.63
8051;BME280;4068;42.158;24.732;2022-07-04T07:23:28;99760.34;;;27.62;48.26
8051;BME280;4068;42.158;24.732;2022-07-04T07:25:54;99766.53;;;27.69;48.27
8051;BME280;4068;42.158;24.732;2022-07-04T07:28:19;99749.50;;;27.73;48.79
8051;BME280;4068;42.158;24.732;2022-07-04T07:30:44;99765.19;;;27.90;50.19
8051;BME280;4068;42.158;24.732;2022-07-04T07:33:10;99747.91;;;27.96;48.46
8051;BME280;4068;42.158;24.732;2022-07-04T07:35:36;99753.66;;;28.06;49.22
8051;BME280;4068;42.158;24.732;2022-07-04T07:38:02;99754.47;;;28.19;48.23
8051;BME280;4068;42.158;24.732;2022-07-04T07:40:27;99757.13;;;28.26;48.52
8051;BME280;4068;42.158;24.732;2022-07-04T07:42:53;99758.06;;;28.31;47.84
8051;BME280;4068;42.158;24.732;2022-07-04T07:45:20;99741.84;;;28.36;47.62
8051;BME280;4068;42.158;24.732;2022-07-04T07:47:46;99737.69;;;28.46;46.46
8051;BME280;4068;42.158;24.732;2022-07-04T07:50:12;99752.66;;;28.67;46.50
8051;BME280;4068;42.158;24.732;2022-07-04T07:52:37;99746.94;;;28.80;46.13
8051;BME280;4068;42.158;24.732;2022-07-04T07:55:04;99734.72;;;28.83;46.90
8051;BME280;4068;42.158;24.732;2022-07-04T07:57:29;99746.91;;;29.04;46.41
8051;BME280;4068;42.158;24.732;2022-07-04T07:59:55;99744.06;;;29.10;46.39
8051;BME280;4068;42.158;24.732;2022-07-04T08:02:21;99742.03;;;29.06;46.96
8051;BME280;4068;42.158;24.732;2022-07-04T08:05:06;99748.06;;;29.20;46.72
8051;BME280;4068;42.158;24.732;2022-07-04T08:07:31;99723.97;;;29.17;44.89
8051;BME280;4068;42.158;24.732;2022-07-04T08:09:57;99734.75;;;29.35;45.01
8051;BME280;4068;42.158;24.732;2022-07-04T08:12:22;99731.41;;;29.45;44.39
8051;BME280;4068;42.158;24.732;2022-07-04T08:14:48;99731.25;;;29.52;44.06
8051;BME280;4068;42.158;24.732;2022-07-04T08:17:13;99733.13;;;29.63;44.56
8051;BME280;4068;42.158;24.732;2022-07-04T08:19:39;99730.69;;;29.67;43.77
8051;BME280;4068;42.158;24.732;2022-07-04T08:22:04;99722.63;;;29.72;43.54
8051;BME280;4068;42.158;24.732;2022-07-04T08:24:30;99720.53;;;29.62;44.11
8051;BME280;4068;42.158;24.732;2022-07-04T08:26:55;99713.09;;;29.74;43.00
8051;BME280;4068;42.158;24.732;2022-07-04T08:29:21;99727.28;;;29.88;43.03
8051;BME280;4068;42.158;24.732;2022-07-04T08:31:47;99725.16;;;30.07;43.23
8051;BME280;4068;42.158;24.732;2022-07-04T08:34:13;99724.72;;;30.16;43.44
8051;BME280;4068;42.158;24.732;2022-07-04T08:36:39;99719.19;;;30.27;43.54
8051;BME280;4068;42.158;24.732;2022-07-04T08:39:04;99732.78;;;30.39;43.48
8051;BME280;4068;42.158;24.732;2022-07-04T08:41:36;99737.34;;;30.51;40.95
8051;BME280;4068;42.158;24.732;2022-07-04T08:44:04;99734.75;;;30.61;39.83
8051;BME280;4068;42.158;24.732;2022-07-04T08:46:31;99726.94;;;30.70;40.86
8051;BME280;4068;42.158;24.732;2022-07-04T08:48:58;99725.69;;;30.77;41.34
8051;BME280;4068;42.158;24.732;2022-07-04T08:51:51;99728.06;;;30.91;41.98
8051;BME280;4068;42.158;24.732;2022-07-04T08:54:18;99723.16;;;30.93;41.06
8051;BME280;4068;42.158;24.732;2022-07-04T08:57:02;99719.06;;;30.95;42.25
8051;BME280;4068;42.158;24.732;2022-07-04T08:59:46;99723.50;;;31.19;42.48
8051;BME280;4068;42.158;24.732;2022-07-04T09:02:16;99714.63;;;31.33;40.57
8051;BME280;4068;42.158;24.732;2022-07-04T09:04:44;99705.69;;;31.43;40.71
8051;BME280;4068;42.158;24.732;2022-07-04T09:07:13;99695.25;;;31.13;39.71
8051;BME280;4068;42.158;24.732;2022-07-04T09:09:40;99712.41;;;31.30;38.20
8051;BME280;4068;42.158;24.732;2022-07-04T09:12:05;99707.19;;;31.29;36.94
8051;BME280;4068;42.158;24.732;2022-07-04T09:14:32;99702.28;;;31.31;35.62
8051;BME280;4068;42.158;24.732;2022-07-04T09:16:58;99692.97;;;31.32;36.42
8051;BME280;4068;42.158;24.732;2022-07-04T09:19:23;99703.38;;;31.30;36.36
8051;BME280;4068;42.158;24.732;2022-07-04T09:21:49;99697.41;;;31.38;35.22
8051;BME280;4068;42.158;24.732;2022-07-04T09:24:15;99698.88;;;31.46;35.70
8051;BME280;4068;42.158;24.732;2022-07-04T09:26:45;99698.44;;;31.54;36.51
8051;BME280;4068;42.158;24.732;2022-07-04T09:29:11;99694.59;;;31.82;35.39
8051;BME280;4068;42.158;24.732;2022-07-04T09:31:38;99689.94;;;31.83;35.53
8051;BME280;4068;42.158;24.732;2022-07-04T09:34:05;99686.41;;;31.88;35.90
8051;BME280;4068;42.158;24.732;2022-07-04T09:36:39;99691.50;;;32.06;34.66
8051;BME280;4068;42.158;24.732;2022-07-04T09:41:58;99700.09;;;31.82;31.81
8051;BME280;4068;42.158;24.732;2022-07-04T09:46:59;99695.59;;;32.04;31.16
8051;BME280;4068;42.158;24.732;2022-07-04T09:52:43;99667.75;;;32.17;31.90
8051;BME280;4068;42.158;24.732;2022-07-04T09:55:09;99687.94;;;32.38;31.67
8051;BME280;4068;42.158;24.732;2022-07-04T09:57:34;99689.53;;;32.34;31.35
8051;BME280;4068;42.158;24.732;2022-07-04T10:02:41;99691.72;;;32.32;32.05
8051;BME280;4068;42.158;24.732;2022-07-04T10:05:07;99674.72;;;32.35;32.88
8051;BME280;4068;42.158;24.732;2022-07-04T10:07:40;99680.59;;;32.54;31.90
8051;BME280;4068;42.158;24.732;2022-07-04T10:12:55;99687.44;;;33.04;32.21
8051;BME280;4068;42.158;24.732;2022-07-04T10:15:21;99677.00;;;33.01;31.97
8051;BME280;4068;42.158;24.732;2022-07-04T10:17:46;99681.94;;;32.99;31.92
8051;BME280;4068;42.158;24.732;2022-07-04T10:20:12;99679.47;;;33.03;31.98
8051;BME280;4068;42.158;24.732;2022-07-04T10:22:38;99674.28;;;33.07;32.34
8051;BME280;4068;42.158;24.732;2022-07-04T10:25:05;99666.66;;;33.24;32.36
8051;BME280;4068;42.158;24.732;2022-07-04T10:27:31;99662.59;;;33.52;31.15
8051;BME280;4068;42.158;24.732;2022-07-04T10:29:57;99643.88;;;33.54;31.39
8051;BME280;4068;42.158;24.732;2022-07-04T10:32:25;99665.31;;;33.58;31.00
8051;BME280;4068;42.158;24.732;2022-07-04T10:34:51;99661.25;;;33.76;31.15
8051;BME280;4068;42.158;24.732;2022-07-04T10:37:16;99657.13;;;33.94;31.60
8051;BME280;4068;42.158;24.732;2022-07-04T10:39:43;99660.69;;;33.74;31.80
8051;BME280;4068;42.158;24.732;2022-07-04T10:42:08;99658.22;;;33.93;31.66
8051;BME280;4068;42.158;24.732;2022-07-04T10:44:34;99660.41;;;34.16;31.43
8051;BME280;4068;42.158;24.732;2022-07-04T10:47:04;99651.34;;;34.00;31.04
8051;BME280;4068;42.158;24.732;2022-07-04T10:49:29;99642.56;;;34.03;31.87
8051;BME280;4068;42.158;24.732;2022-07-04T10:52:02;99640.88;;;34.08;30.72
8051;BME280;4068;42.158;24.732;2022-07-04T10:54:35;99643.91;;;33.96;31.62
8051;BME280;4068;42.158;24.732;2022-07-04T10:59:37;99641.97;;;33.70;32.77
8051;BME280;4068;42.158;24.732;2022-07-04T11:07:10;99639.00;;;33.82;32.73
8051;BME280;4068;42.158;24.732;2022-07-04T11:09:35;99634.31;;;33.83;32.72
8051;BME280;4068;42.158;24.732;2022-07-04T11:12:03;99604.59;;;33.54;32.46
8051;BME280;4068;42.158;24.732;2022-07-04T11:14:37;99628.53;;;33.79;32.27
8051;BME280;4068;42.158;24.732;2022-07-04T11:17:07;99625.75;;;33.95;32.08
8051;BME280;4068;42.158;24.732;2022-07-04T11:19:33;99619.44;;;33.99;32.25
8051;BME280;4068;42.158;24.732;2022-07-04T11:21:59;99628.50;;;34.15;32.31
8051;BME280;4068;42.158;24.732;2022-07-04T11:24:25;99626.78;;;34.40;32.22
8051;BME280;4068;42.158;24.732;2022-07-04T11:26:51;99630.06;;;34.52;32.06
8051;BME280;4068;42.158;24.732;2022-07-04T11:29:17;99616.56;;;34.56;31.85
8051;BME280;4068;42.158;24.732;2022-07-04T11:31:44;99615.16;;;34.58;31.39
8051;BME280;4068;42.158;24.732;2022-07-04T11:34:11;99599.44;;;34.64;31.50
8051;BME280;4068;42.158;24.732;2022-07-04T11:36:38;99598.84;;;34.83;31.34
8051;BME280;4068;42.158;24.732;2022-07-04T11:39:09;99606.25;;;34.87;31.58
8051;BME280;4068;42.158;24.732;2022-07-04T11:41:43;99608.41;;;34.96;31.88
8051;BME280;4068;42.158;24.732;2022-07-04T11:44:33;99605.19;;;34.73;31.90
8051;BME280;4068;42.158;24.732;2022-07-04T11:47:18;99599.13;;;34.81;32.04
8051;BME280;4068;42.158;24.732;2022-07-04T11:49:55;99607.75;;;35.14;32.19
8051;BME280;4068;42.158;24.732;2022-07-04T11:52:41;99603.47;;;34.98;30.57
8051;BME280;4068;42.158;24.732;2022-07-04T11:55:09;99593.09;;;34.79;30.91
8051;BME280;4068;42.158;24.732;2022-07-04T11:57:53;99589.97;;;34.96;33.34
8051;BME280;4068;42.158;24.732;2022-07-04T12:00:25;99585.38;;;35.21;30.81
8051;BME280;4068;42.158;24.732;2022-07-04T12:02:51;99588.25;;;35.05;30.87
8051;BME280;4068;42.158;24.732;2022-07-04T12:05:17;99586.59;;;35.04;30.76
8051;BME280;4068;42.158;24.732;2022-07-04T12:07:45;99588.47;;;35.14;31.17
8051;BME280;4068;42.158;24.732;2022-07-04T12:10:23;99589.75;;;35.27;30.54
8051;BME280;4068;42.158;24.732;2022-07-04T12:13:02;99583.41;;;35.32;30.10
8051;BME280;4068;42.158;24.732;2022-07-04T12:18:35;99579.06;;;35.20;30.89
8051;BME280;4068;42.158;24.732;2022-07-04T12:21:14;99575.09;;;35.37;30.31
8051;BME280;4068;42.158;24.732;2022-07-04T12:23:53;99571.84;;;35.24;28.95
8051;BME280;4068;42.158;24.732;2022-07-04T12:26:19;99576.34;;;35.15;29.35
8051;BME280;4068;42.158;24.732;2022-07-04T12:28:44;99576.72;;;34.98;29.57
8051;BME280;4068;42.158;24.732;2022-07-04T12:31:10;99576.81;;;34.83;29.59
8051;BME280;4068;42.158;24.732;2022-07-04T12:33:35;99570.72;;;34.86;29.53
8051;BME280;4068;42.158;24.732;2022-07-04T12:36:03;99568.38;;;34.58;29.91
8051;BME280;4068;42.158;24.732;2022-07-04T12:41:05;99557.25;;;34.84;29.95
8051;BME280;4068;42.158;24.732;2022-07-04T12:46:06;99560.31;;;35.22;28.97
8051;BME280;4068;42.158;24.732;2022-07-04T12:48:32;99563.75;;;35.04;28.46
8051;BME280;4068;42.158;24.732;2022-07-04T12:51:13;99557.25;;;34.84;29.29
8051;BME280;4068;42.158;24.732;2022-07-04T12:53:41;99556.13;;;34.90;29.54
8051;BME280;4068;42.158;24.732;2022-07-04T12:56:07;99551.25;;;35.17;29.29
8051;BME280;4068;42.158;24.732;2022-07-04T12:58:33;99544.75;;;35.42;29.81
8051;BME280;4068;42.158;24.732;2022-07-04T13:00:59;99551.44;;;35.31;28.34
8051;BME280;4068;42.158;24.732;2022-07-04T13:03:24;99547.50;;;35.42;28.45
8051;BME280;4068;42.158;24.732;2022-07-04T13:05:50;99539.94;;;35.53;27.57
8051;BME280;4068;42.158;24.732;2022-07-04T13:08:15;99546.38;;;35.43;26.78
8051;BME280;4068;42.158;24.732;2022-07-04T13:10:41;99553.41;;;35.25;26.16
8051;BME280;4068;42.158;24.732;2022-07-04T13:13:06;99547.88;;;34.90;26.87
8051;BME280;4068;42.158;24.732;2022-07-04T13:15:32;99538.47;;;34.91;26.50
8051;BME280;4068;42.158;24.732;2022-07-04T13:17:57;99535.66;;;35.02;27.13
8051;BME280;4068;42.158;24.732;2022-07-04T13:20:23;99537.38;;;35.27;27.24
8051;BME280;4068;42.158;24.732;2022-07-04T13:22:49;99544.19;;;35.40;26.49
8051;BME280;4068;42.158;24.732;2022-07-04T13:25:14;99540.97;;;35.62;26.32
8051;BME280;4068;42.158;24.732;2022-07-04T13:27:40;99532.00;;;35.75;25.71
8051;BME280;4068;42.158;24.732;2022-07-04T13:30:06;99527.28;;;35.81;26.18
8051;BME280;4068;42.158;24.732;2022-07-04T13:32:31;99530.31;;;35.85;26.14
8051;BME280;4068;42.158;24.732;2022-07-04T13:34:58;99529.88;;;35.67;26.35
8051;BME280;4068;42.158;24.732;2022-07-04T13:37:23;99530.75;;;35.63;26.50
8051;BME280;4068;42.158;24.732;2022-07-04T13:39:49;99532.50;;;35.53;26.06